Terminal Aerodrome Forecast
Issued by NWS

Home | Current Version | Previous Version | Graphics & Text | Print | Product List | Glossary On
Versions: 1 2 3 4 5 6 7 8 9 10 11 12 13 14
822
FTUS43 KIWX 011153 AAA
TAFSBN
TAF AMD
KSBN 011153Z 0112/0206 25013G21KT P6SM OVC015
     FM011900 26014G22KT P6SM VCSH OVC030
     FM020000 25009KT P6SM OVC025=

USA.gov is the U.S. government's official web portal to all federal, state and local government web resources and services.